Time;durP1;ratioP1;P1;durP2;ratioP2;P2;SDS_P1;SDS_P2;PMS_P1;PMS_P2;Temp;Humidity;BMP_temperature;BMP_pressure;BME280_temperature;BME280_humidity;BME280_pressure;Samples;Min_cycle;Max_cycle;Signal;HPM_P1;HPM_P2
2021/01/12 00:00:43;;;;;;;36.90;17.58;;;-3273.80;66.00;;;;;;5062904;28;20328;-71
2021/01/12 00:03:09;;;;;;;37.17;17.55;;;-3273.70;65.60;;;;;;5061417;28;20044;-71
2021/01/12 00:05:35;;;;;;;35.97;17.02;;;-3273.70;65.50;;;;;;5061009;28;20052;-71
2021/01/12 00:08:00;;;;;;;37.15;17.73;;;-3273.60;65.20;;;;;;5062657;28;20024;-71
2021/01/12 00:10:26;;;;;;;38.00;18.02;;;-3273.60;65.40;;;;;;5060874;28;20033;-71
2021/01/12 00:12:52;;;;;;;33.30;16.58;;;-3273.60;65.20;;;;;;5044754;28;20109;-71
2021/01/12 00:15:18;;;;;;;36.72;16.65;;;-3273.60;65.70;;;;;;5060851;28;20067;-71
2021/01/12 00:17:43;;;;;;;30.25;15.93;;;-3273.60;65.90;;;;;;5043463;28;20086;-71
2021/01/12 00:20:10;;;;;;;32.20;15.90;;;-3273.50;65.90;;;;;;5062591;28;20036;-72
2021/01/12 00:22:35;;;;;;;32.85;15.40;;;-3273.60;66.20;;;;;;5040029;28;20053;-71
2021/01/12 00:25:01;;;;;;;33.38;15.15;;;-3273.50;65.70;;;;;;5041239;28;20037;-71
2021/01/12 00:27:27;;;;;;;30.88;15.35;;;-3273.50;65.40;;;;;;5042361;28;20034;-71
2021/01/12 00:29:52;;;;;;;34.28;15.20;;;-3273.50;65.60;;;;;;5041178;28;20057;-71
2021/01/12 00:32:25;;;;;;;30.33;14.55;;;-3273.40;65.70;;;;;;5044692;28;20040;-72
2021/01/12 00:34:51;;;;;;;36.53;16.55;;;-3273.40;66.10;;;;;;5060837;28;20037;-71
2021/01/12 00:37:17;;;;;;;32.72;15.88;;;-3273.40;66.30;;;;;;5060815;28;20147;-71
2021/01/12 00:39:42;;;;;;;33.85;15.93;;;-3273.40;65.90;;;;;;5041234;28;20080;-72
2021/01/12 00:42:08;;;;;;;32.05;15.45;;;-3273.40;66.20;;;;;;5040909;28;20233;-71
2021/01/12 00:44:34;;;;;;;32.30;16.80;;;-3273.50;66.60;;;;;;5041165;28;20044;-71
2021/01/12 00:46:59;;;;;;;31.73;15.82;;;-3273.50;67.20;;;;;;5062125;28;20029;-73
2021/01/12 00:49:25;;;;;;;31.60;16.02;;;-3273.50;67.20;;;;;;5060731;28;20025;-72
2021/01/12 00:51:51;;;;;;;33.05;16.48;;;-3273.50;67.10;;;;;;5041096;28;20104;-71
2021/01/12 00:54:22;;;;;;;31.13;15.93;;;-3273.60;67.50;;;;;;5044938;28;20041;-71
2021/01/12 00:56:48;;;;;;;34.33;15.77;;;-3273.60;67.60;;;;;;5043768;28;20220;-71
2021/01/12 00:59:13;;;;;;;29.60;15.30;;;-3273.60;67.40;;;;;;5046452;28;20051;-71
2021/01/12 01:01:39;;;;;;;30.73;16.08;;;-3273.60;67.50;;;;;;5044804;28;20345;-71
2021/01/12 01:04:08;;;;;;;30.50;14.80;;;-3273.60;67.80;;;;;;5043669;28;20055;-71
2021/01/12 01:06:33;;;;;;;30.00;14.75;;;-3273.70;68.00;;;;;;5045978;28;20056;-71
2021/01/12 01:08:59;;;;;;;29.77;15.27;;;-3273.70;67.90;;;;;;5044550;28;20034;-71
2021/01/12 01:11:24;;;;;;;29.33;14.95;;;-3273.70;67.70;;;;;;5045728;28;20034;-72
2021/01/12 01:13:50;;;;;;;31.10;15.48;;;-3273.80;67.90;;;;;;5044521;28;20340;-71
2021/01/12 01:16:15;;;;;;;27.73;14.63;;;-3273.80;67.80;;;;;;5043947;28;20284;-71
2021/01/12 01:18:41;;;;;;;30.23;14.18;;;-3273.80;67.90;;;;;;5045658;28;20109;-71
2021/01/12 01:21:13;;;;;;;28.48;15.30;;;-3273.80;67.90;;;;;;5044326;28;20202;-73
2021/01/12 01:23:41;;;;;;;31.52;16.20;;;-3273.80;67.40;;;;;;5042919;28;20041;-71
2021/01/12 01:26:07;;;;;;;31.35;15.43;;;-3273.90;67.70;;;;;;5046039;28;20044;-71
2021/01/12 01:28:32;;;;;;;29.20;14.82;;;-3273.90;68.10;;;;;;5043918;28;20037;-71
2021/01/12 01:30:58;;;;;;;32.63;16.27;;;-3274.00;68.30;;;;;;5043909;28;20044;-71
2021/01/12 01:33:24;;;;;;;35.80;15.45;;;-3273.90;67.60;;;;;;5027871;28;20041;-71
2021/01/12 01:35:49;;;;;;;30.95;15.63;;;-3273.90;68.30;;;;;;5043847;28;21336;-71
2021/01/12 01:38:15;;;;;;;28.92;15.68;;;-3274.00;68.20;;;;;;5045457;28;20044;-71
2021/01/12 01:40:40;;;;;;;30.92;16.00;;;-3274.10;68.20;;;;;;5044028;28;20040;-71
2021/01/12 01:43:06;;;;;;;33.00;15.65;;;-3274.10;68.30;;;;;;5043975;28;20033;-71
2021/01/12 01:45:32;;;;;;;31.30;15.60;;;-3274.10;68.40;;;;;;5045446;28;20033;-72
2021/01/12 01:47:57;;;;;;;33.17;16.00;;;-3274.10;68.30;;;;;;5060977;28;20052;-71
2021/01/12 01:50:23;;;;;;;29.30;14.60;;;-3274.20;68.80;;;;;;5047297;28;20400;-71
2021/01/12 01:52:55;;;;;;;30.25;15.40;;;-3274.20;68.70;;;;;;5063487;28;20382;-72
2021/01/12 01:55:22;;;;;;;28.75;14.55;;;-3274.30;68.80;;;;;;5063378;28;20108;-71
2021/01/12 01:57:47;;;;;;;33.38;16.95;;;-3274.30;69.00;;;;;;5047655;28;20037;-71
2021/01/12 02:00:17;;;;;;;31.23;16.20;;;-3274.40;69.20;;;;;;5063725;28;20348;-71
2021/01/12 02:02:48;;;;;;;30.38;15.38;;;-3274.40;69.00;;;;;;5063320;28;20033;-71
2021/01/12 02:05:14;;;;;;;;;;;-3274.50;68.70;;;;;;5064706;28;20033;-72
2021/01/12 02:07:44;;;;;;;33.67;15.18;;;-3274.60;68.70;;;;;;5079093;28;19911;-71
2021/01/12 02:10:11;;;;;;;31.88;15.13;;;-3274.50;68.70;;;;;;5045611;28;20033;-71
2021/01/12 02:12:45;;;;;;;30.73;15.32;;;-3274.50;69.30;;;;;;5046943;28;20220;-71
2021/01/12 02:15:11;;;;;;;29.85;15.32;;;-3274.60;68.50;;;;;;5062993;28;20040;-71
2021/01/12 02:17:36;;;;;;;28.73;13.57;;;-3274.60;67.70;;;;;;5063144;28;20328;-71
2021/01/12 02:20:02;;;;;;;28.25;14.02;;;-3274.60;68.10;;;;;;5046959;28;20080;-71
2021/01/12 02:22:28;;;;;;;27.10;14.15;;;-3274.60;68.60;;;;;;5063001;28;20036;-71
2021/01/12 02:24:54;;;;;;;26.58;13.07;;;-3274.80;68.40;;;;;;5028584;28;20071;-70
2021/01/12 02:27:23;;;;;;;28.20;13.68;;;-3274.80;67.60;;;;;;5046636;28;20029;-71
2021/01/12 02:29:52;;;;;;;30.45;13.25;;;-3274.90;67.70;;;;;;5063087;28;20269;-71
2021/01/12 02:32:18;;;;;;;24.70;12.55;;;-3274.90;67.10;;;;;;5064349;28;20092;-71
2021/01/12 02:34:44;;;;;;;27.83;13.05;;;-3274.90;66.50;;;;;;5062733;28;20064;-71
2021/01/12 02:37:11;;;;;;;24.45;13.60;;;-3274.90;66.40;;;;;;5062995;28;20090;-71
2021/01/12 02:39:37;;;;;;;27.48;12.77;;;-3274.90;66.80;;;;;;5046993;28;20037;-71
2021/01/12 02:42:13;;;;;;;25.05;12.75;;;-3275.00;66.00;;;;;;5062916;28;20262;-71
2021/01/12 02:44:39;;;;;;;24.70;12.13;;;-3275.10;65.40;;;;;;5044798;28;20279;-71
2021/01/12 02:47:04;;;;;;;24.02;12.18;;;-3275.10;65.40;;;;;;5064450;28;20029;-71
2021/01/12 02:49:30;;;;;;;22.48;12.48;;;-3275.10;66.00;;;;;;5062604;28;20083;-71
2021/01/12 02:51:55;;;;;;;27.00;12.43;;;-3275.10;66.40;;;;;;5062262;28;20036;-70
2021/01/12 02:54:21;;;;;;;23.33;11.77;;;-3275.10;67.10;;;;;;5064155;28;20041;-71
2021/01/12 02:56:46;;;;;;;26.83;12.27;;;-3275.10;67.20;;;;;;5062210;28;20067;-71
2021/01/12 02:59:12;;;;;;;25.35;12.02;;;-3275.30;67.30;;;;;;5064211;28;20368;-71
2021/01/12 03:01:37;;;;;;;23.13;12.38;;;-3275.30;66.00;;;;;;5062556;28;20040;-71
2021/01/12 03:04:03;;;;;;;24.58;11.27;;;-3275.30;65.70;;;;;;5061894;28;20041;-71
2021/01/12 03:06:29;;;;;;;18.75;10.63;;;-3275.30;65.30;;;;;;5063696;28;20064;-71
2021/01/12 03:08:55;;;;;;;21.90;12.20;;;-3275.30;64.90;;;;;;5062142;28;20041;-71
2021/01/12 03:11:20;;;;;;;22.08;11.40;;;-3275.30;64.80;;;;;;5063592;28;20263;-71
2021/01/12 03:13:46;;;;;;;21.00;11.20;;;-3275.20;64.50;;;;;;5062008;28;20032;-71
2021/01/12 03:16:11;;;;;;;22.58;11.73;;;-3275.20;64.90;;;;;;5060720;28;20048;-71
2021/01/12 03:18:37;;;;;;;22.98;12.80;;;-3275.20;65.40;;;;;;5063495;28;20135;-71
2021/01/12 03:21:03;;;;;;;23.38;11.32;;;-3275.20;65.10;;;;;;5062201;28;20216;-71
2021/01/12 03:23:28;;;;;;;21.98;11.25;;;-3275.20;65.40;;;;;;5063509;28;20351;-71
2021/01/12 03:25:54;;;;;;;21.38;11.48;;;-3275.20;65.10;;;;;;5061609;28;20033;-71
2021/01/12 03:28:20;;;;;;;22.63;12.23;;;-3275.20;65.20;;;;;;5061909;28;20092;-71
2021/01/12 03:30:45;;;;;;;19.40;11.25;;;-3275.20;65.10;;;;;;5063475;28;20029;-71
2021/01/12 03:33:11;;;;;;;21.10;11.57;;;-3275.10;65.30;;;;;;5061915;28;20064;-71
2021/01/12 03:35:36;;;;;;;21.13;10.90;;;-3275.10;65.10;;;;;;5061359;28;20320;-71
2021/01/12 03:38:02;;;;;;;19.33;10.88;;;-3275.10;65.60;;;;;;5063236;28;20031;-71
2021/01/12 03:40:27;;;;;;;19.67;11.00;;;-3275.20;65.90;;;;;;5061802;28;20029;-71
2021/01/12 03:42:53;;;;;;;23.95;12.65;;;-3275.20;65.50;;;;;;5063011;28;20092;-71
2021/01/12 03:45:19;;;;;;;25.20;10.98;;;-3275.20;65.90;;;;;;5062217;28;20033;-71
2021/01/12 03:47:44;;;;;;;20.80;11.60;;;-3275.20;65.20;;;;;;5061644;28;20232;-71
2021/01/12 03:50:10;;;;;;;20.83;10.98;;;-3275.20;65.50;;;;;;5063149;28;20107;-71
2021/01/12 03:52:36;;;;;;;23.45;11.90;;;-3275.10;65.30;;;;;;5061445;28;20037;-71
2021/01/12 03:55:02;;;;;;;19.70;11.18;;;-3275.10;65.50;;;;;;5061140;28;20132;-71
2021/01/12 03:57:27;;;;;;;22.25;11.25;;;-3275.20;65.20;;;;;;5063155;28;20190;-71
2021/01/12 03:59:53;;;;;;;24.35;10.73;;;-3275.20;65.20;;;;;;5061471;28;20055;-71
2021/01/12 04:02:18;;;;;;;20.90;10.77;;;-3275.20;64.50;;;;;;5062926;28;20052;-71
2021/01/12 04:04:44;;;;;;;22.10;11.90;;;-3275.20;64.80;;;;;;5061270;28;20040;-71
2021/01/12 04:07:10;;;;;;;20.83;10.82;;;-3275.10;65.30;;;;;;5061160;28;20430;-71
2021/01/12 04:09:35;;;;;;;23.40;11.93;;;-3275.20;64.70;;;;;;5045255;28;20083;-71
2021/01/12 04:12:01;;;;;;;21.90;10.90;;;-3275.30;65.30;;;;;;5061382;28;20040;-71
2021/01/12 04:14:26;;;;;;;21.40;10.85;;;-3275.30;64.60;;;;;;5062395;28;20044;-71
2021/01/12 04:16:52;;;;;;;20.55;11.43;;;-3275.40;64.40;;;;;;5061039;28;20041;-71
2021/01/12 04:19:18;;;;;;;23.25;11.40;;;-3275.40;63.90;;;;;;5061143;28;20136;-71
2021/01/12 04:21:43;;;;;;;23.33;11.43;;;-3275.40;64.60;;;;;;5062510;28;20251;-71
2021/01/12 04:24:09;;;;;;;23.10;12.00;;;-3275.40;64.60;;;;;;5061030;28;20041;-71
2021/01/12 04:26:35;;;;;;;23.92;11.15;;;-3275.50;64.60;;;;;;5061144;28;20033;-71
2021/01/12 04:29:00;;;;;;;20.67;10.38;;;-3275.50;63.80;;;;;;5062169;28;20139;-71
2021/01/12 04:31:26;;;;;;;21.45;10.98;;;-3275.50;63.90;;;;;;5060477;28;20037;-71
2021/01/12 04:33:52;;;;;;;21.05;11.27;;;-3275.50;63.70;;;;;;5062367;28;20096;-71
2021/01/12 04:36:17;;;;;;;21.20;10.85;;;-3275.50;64.20;;;;;;5060700;28;20045;-71
2021/01/12 04:38:43;;;;;;;22.42;11.48;;;-3275.50;64.10;;;;;;5060854;28;20096;-71
2021/01/12 04:41:08;;;;;;;26.60;11.27;;;-3275.50;63.80;;;;;;5062479;28;20101;-71
2021/01/12 04:43:34;;;;;;;21.92;10.93;;;-3275.50;63.50;;;;;;5060792;28;20033;-71
2021/01/12 04:45:59;;;;;;;23.10;11.85;;;-3275.60;63.50;;;;;;5060585;28;20359;-70
2021/01/12 04:48:25;;;;;;;20.27;11.35;;;-3275.60;63.10;;;;;;5044524;28;20098;-71
2021/01/12 04:51:09;;;;;;;22.52;11.55;;;-3275.60;63.50;;;;;;5039464;28;20037;-71
2021/01/12 04:53:39;;;;;;;19.77;11.05;;;-3275.70;63.00;;;;;;5039736;28;20038;-70
2021/01/12 04:56:06;;;;;;;22.52;11.00;;;-3275.70;62.80;;;;;;5041295;28;20079;-71
2021/01/12 04:58:41;;;;;;;22.25;10.13;;;-3275.70;63.70;;;;;;5040768;28;20044;-72
2021/01/12 05:01:14;;;;;;;20.05;10.45;;;-3275.70;63.20;;;;;;5040389;28;20100;-71
2021/01/12 05:03:46;;;;;;;21.35;11.30;;;-3275.80;63.10;;;;;;5042334;28;20057;-71
2021/01/12 05:06:12;;;;;;;21.35;10.55;;;-3275.80;62.20;;;;;;5040922;28;20271;-71
2021/01/12 05:08:45;;;;;;;20.27;11.13;;;-3275.70;62.10;;;;;;5040599;28;20061;-71
2021/01/12 05:11:12;;;;;;;20.33;11.15;;;-3275.70;62.20;;;;;;5042131;28;20034;-72
2021/01/12 05:13:42;;;;;;;20.33;10.65;;;-3275.70;61.80;;;;;;5040545;28;20049;-71
2021/01/12 05:16:08;;;;;;;23.58;11.75;;;-3275.60;61.60;;;;;;5040178;28;20112;-71
2021/01/12 05:18:41;;;;;;;23.77;11.02;;;-3275.60;62.30;;;;;;5042328;28;20364;-72
2021/01/12 05:21:08;;;;;;;21.80;11.40;;;-3275.60;61.90;;;;;;5039739;28;20030;-71
2021/01/12 05:23:48;;;;;;;22.48;11.20;;;-3275.50;62.40;;;;;;5040319;28;20109;-71
2021/01/12 05:26:16;;;;;;;20.73;11.00;;;-3275.50;62.00;;;;;;5041108;28;20072;-71
2021/01/12 05:28:41;;;;;;;22.30;10.68;;;-3275.50;62.30;;;;;;5039464;28;20055;-71
2021/01/12 05:31:07;;;;;;;21.92;11.13;;;-3275.50;62.70;;;;;;5040150;28;20033;-71
2021/01/12 05:33:32;;;;;;;17.95;9.75;;;-3275.50;62.30;;;;;;5040629;28;20341;-67
2021/01/12 05:35:58;;;;;;;20.80;11.32;;;-3275.50;62.30;;;;;;5039128;28;20345;-66
2021/01/12 05:38:28;;;;;;;20.58;10.02;;;-3275.50;62.30;;;;;;5040958;28;20038;-68
2021/01/12 05:40:55;;;;;;;19.17;10.90;;;-3275.50;62.10;;;;;;5042251;28;20037;-67
2021/01/12 05:43:39;;;;;;;17.98;10.02;;;-3275.50;61.50;;;;;;5042673;28;20041;-68
2021/01/12 05:46:06;;;;;;;20.60;10.02;;;-3275.50;62.10;;;;;;5042911;28;20033;-68
2021/01/12 05:48:34;;;;;;;20.75;9.32;;;-3275.60;61.80;;;;;;5045429;28;20084;-67
2021/01/12 05:50:59;;;;;;;19.73;9.77;;;-3275.60;61.20;;;;;;5043818;28;20220;-68
2021/01/12 05:53:25;;;;;;;19.30;9.30;;;-3275.40;61.10;;;;;;5043946;28;20038;-68
2021/01/12 05:55:55;;;;;;;19.60;9.95;;;-3275.60;61.90;;;;;;5045038;28;20032;-68
2021/01/12 05:58:29;;;;;;;17.67;9.00;;;-3275.60;61.90;;;;;;5031283;28;20037;-68
2021/01/12 06:00:54;;;;;;;16.33;9.00;;;-3275.70;62.10;;;;;;5045708;28;20032;-66
2021/01/12 06:03:20;;;;;;;17.38;9.68;;;-3275.60;61.40;;;;;;5043780;28;20060;-67
2021/01/12 06:05:46;;;;;;;18.33;9.32;;;-3275.50;62.00;;;;;;5042438;28;20080;-67
2021/01/12 06:08:15;;;;;;;19.65;8.68;;;-3275.60;62.00;;;;;;5043739;28;20056;-67
2021/01/12 06:10:44;;;;;;;20.20;8.90;;;-3275.70;62.30;;;;;;5043127;28;20041;-68
2021/01/12 06:13:17;;;;;;;17.60;8.77;;;-3275.60;61.40;;;;;;5041922;28;20071;-67
2021/01/12 06:15:44;;;;;;;17.20;8.88;;;-3275.70;62.40;;;;;;5042971;28;20045;-67
2021/01/12 06:18:17;;;;;;;19.48;9.48;;;-3275.70;62.40;;;;;;5041861;28;20037;-66
2021/01/12 06:21:12;;;;;;;18.67;9.15;;;-3275.70;62.10;;;;;;5041470;28;20037;-66
2021/01/12 06:23:44;;;;;;;18.85;8.93;;;-3275.70;62.10;;;;;;5042983;28;20067;-65
2021/01/12 06:26:10;;;;;;;18.17;9.43;;;-3275.70;62.10;;;;;;5043119;28;20391;-66
2021/01/12 06:28:35;;;;;;;18.00;9.07;;;-3275.60;62.40;;;;;;5041573;28;20030;-66
2021/01/12 06:31:04;;;;;;;15.45;8.25;;;-3275.70;62.90;;;;;;5041123;28;20033;-65
2021/01/12 06:33:31;;;;;;;16.60;7.80;;;-3275.80;63.40;;;;;;5044305;28;20033;-69
2021/01/12 06:35:57;;;;;;;16.67;9.00;;;-3275.70;63.30;;;;;;5042387;28;20108;-77
2021/01/12 06:38:23;;;;;;;16.40;7.82;;;-3275.80;63.60;;;;;;5042575;28;20050;-69
2021/01/12 06:40:53;;;;;;;17.50;7.65;;;-3275.80;63.80;;;;;;5042349;28;20029;-70
2021/01/12 06:43:21;;;;;;;15.48;7.85;;;-3275.80;64.60;;;;;;5042516;28;20075;-69
2021/01/12 06:45:47;;;;;;;14.70;7.82;;;-3275.80;64.20;;;;;;5042739;28;20037;-67
2021/01/12 06:48:13;;;;;;;15.38;7.57;;;-3275.90;64.60;;;;;;5041114;28;20033;-66
2021/01/12 06:50:39;;;;;;;15.98;8.02;;;-3275.90;64.50;;;;;;5042032;28;20210;-66
2021/01/12 06:53:04;;;;;;;15.13;7.70;;;-3275.90;64.80;;;;;;5042687;28;20032;-67
2021/01/12 06:55:30;;;;;;;14.02;7.57;;;-3275.90;64.50;;;;;;5040625;28;20108;-69
2021/01/12 06:57:58;;;;;;;14.68;7.82;;;-3276.00;64.40;;;;;;5041927;28;20332;-66
2021/01/12 07:00:25;;;;;;;15.75;7.75;;;-3276.00;63.70;;;;;;5043543;28;20080;-70
2021/01/12 07:02:57;;;;;;;14.02;7.72;;;-3275.90;64.30;;;;;;5042213;28;20056;-72
2021/01/12 07:05:23;;;;;;;14.75;6.93;;;-3275.90;64.40;;;;;;5043664;28;20041;-71
2021/01/12 07:07:49;;;;;;;14.23;8.50;;;-3276.10;64.60;;;;;;5041083;28;20038;-71
2021/01/12 07:10:19;;;;;;;13.40;7.30;;;-3276.00;64.30;;;;;;5040429;28;20033;-71
2021/01/12 07:12:45;;;;;;;11.35;6.45;;;-3276.00;65.20;;;;;;5035436;28;20033;-70
2021/01/12 07:15:13;;;;;;;15.63;6.47;;;-3276.10;65.00;;;;;;5042732;28;20189;-70
2021/01/12 07:17:45;;;;;;;13.35;7.03;;;-3276.10;65.00;;;;;;5061615;28;20037;-71
2021/01/12 07:20:12;;;;;;;11.50;6.38;;;-3276.20;65.80;;;;;;5063361;28;20082;-71
2021/01/12 07:22:39;;;;;;;12.00;6.70;;;-3276.30;65.50;;;;;;5061923;28;20029;-69
2021/01/12 07:25:09;;;;;;;12.82;6.10;;;-3276.40;65.50;;;;;;5040835;28;20096;-69
2021/01/12 07:27:35;;;;;;;9.25;5.40;;;-3276.50;65.20;;;;;;5043503;28;20041;-70
2021/01/12 07:30:06;;;;;;;11.98;6.28;;;-3276.50;64.90;;;;;;5039196;28;20141;-70
2021/01/12 07:32:38;;;;;;;9.77;5.72;;;-3276.50;65.90;;;;;;5023973;28;20037;-70
2021/01/12 07:35:09;;;;;;;10.27;5.53;;;-3276.50;65.30;;;;;;5043116;28;20391;-70
2021/01/12 07:37:37;;;;;;;11.52;6.35;;;-3276.40;65.20;;;;;;5041849;28;20034;-69
2021/01/12 07:40:03;;;;;;;9.80;5.70;;;-3276.60;65.80;;;;;;5041525;28;20096;-70
2021/01/12 07:42:29;;;;;;;10.35;6.13;;;-3276.60;65.20;;;;;;5043069;28;20440;-69
2021/01/12 07:44:54;;;;;;;11.48;5.47;;;0.00;65.10;;;;;;5041533;28;20029;-71
2021/01/12 07:47:20;;;;;;;9.93;5.55;;;-3276.70;65.50;;;;;;5043201;28;20371;-70
2021/01/12 07:49:47;;;;;;;9.57;5.38;;;0.00;66.30;;;;;;5039675;28;20109;-70
2021/01/12 07:52:13;;;;;;;9.95;5.13;;;0.00;66.00;;;;;;5040936;28;20033;-71
2021/01/12 07:54:41;;;;;;;9.00;4.93;;;0.10;66.00;;;;;;5043315;28;20029;-71
2021/01/12 07:57:07;;;;;;;9.43;5.25;;;0.10;66.30;;;;;;5040498;28;20101;-71
2021/01/12 07:59:33;;;;;;;7.53;4.60;;;0.20;66.30;;;;;;5041628;28;20043;-71
2021/01/12 08:01:59;;;;;;;8.00;4.57;;;0.30;66.00;;;;;;5042466;28;20053;-71
2021/01/12 08:04:25;;;;;;;7.05;3.92;;;0.30;66.30;;;;;;5039909;28;20037;-71
2021/01/12 08:06:50;;;;;;;7.47;4.10;;;0.40;66.50;;;;;;5041552;28;20266;-73
2021/01/12 08:09:22;;;;;;;5.95;3.33;;;0.50;66.50;;;;;;5040850;28;20048;-73
2021/01/12 08:11:52;;;;;;;6.63;3.80;;;0.50;66.60;;;;;;5030009;28;20057;-76
2021/01/12 08:14:22;;;;;;;6.47;3.78;;;0.60;66.90;;;;;;5044987;28;20063;-76
2021/01/12 08:16:50;;;;;;;6.05;3.28;;;0.50;67.50;;;;;;5026655;28;20229;-74
2021/01/12 08:19:25;;;;;;;5.75;3.13;;;0.60;67.70;;;;;;5043083;28;20363;-74
2021/01/12 08:21:54;;;;;;;4.97;3.45;;;0.70;67.70;;;;;;5062875;28;20336;-74
2021/01/12 08:24:23;;;;;;;6.38;3.75;;;0.70;67.50;;;;;;5041740;28;20072;-75
2021/01/12 08:26:49;;;;;;;7.40;3.33;;;0.70;67.70;;;;;;5041241;28;20057;-74
2021/01/12 08:29:20;;;;;;;7.10;3.42;;;0.70;68.40;;;;;;5041603;28;20045;-75
2021/01/12 08:31:48;;;;;;;5.72;3.22;;;0.70;68.30;;;;;;5040217;28;20056;-75
2021/01/12 08:34:16;;;;;;;5.90;3.10;;;0.90;68.10;;;;;;5040510;28;20115;-75
2021/01/12 08:36:41;;;;;;;6.93;2.90;;;0.90;68.00;;;;;;5041383;28;20069;-74
2021/01/12 08:39:07;;;;;;;5.28;3.15;;;1.00;68.10;;;;;;5039945;28;20224;-74
2021/01/12 08:41:33;;;;;;;4.28;2.55;;;1.00;68.20;;;;;;5039974;28;20105;-73
2021/01/12 08:43:59;;;;;;;4.35;2.42;;;1.00;68.60;;;;;;5024841;28;20041;-73
2021/01/12 08:46:28;;;;;;;3.72;2.30;;;1.00;68.90;;;;;;5039852;28;20332;-72
2021/01/12 08:48:54;;;;;;;4.75;2.67;;;1.10;69.30;;;;;;5040722;28;20044;-67
2021/01/12 08:51:20;;;;;;;3.80;2.22;;;1.20;69.80;;;;;;5042235;28;20240;-72
2021/01/12 08:53:46;;;;;;;4.88;2.58;;;1.30;69.20;;;;;;5040697;28;20043;-70
2021/01/12 08:56:11;;;;;;;3.55;2.10;;;1.40;69.40;;;;;;5041061;28;20060;-71
2021/01/12 08:58:37;;;;;;;3.55;2.15;;;1.40;69.30;;;;;;5040862;28;20022;-70
2021/01/12 09:01:04;;;;;;;5.55;2.30;;;1.50;69.40;;;;;;5040800;28;20239;-67
2021/01/12 09:03:30;;;;;;;4.70;2.45;;;1.60;69.20;;;;;;5042108;28;20329;-64
2021/01/12 09:05:56;;;;;;;4.47;2.00;;;1.70;69.50;;;;;;5039889;28;20095;-66
2021/01/12 09:08:22;;;;;;;2.38;1.60;;;1.70;69.50;;;;;;5041330;28;20330;-66
2021/01/12 09:10:47;;;;;;;3.35;1.60;;;1.70;69.20;;;;;;5023346;28;20033;-68
2021/01/12 09:13:13;;;;;;;3.10;1.88;;;1.80;69.70;;;;;;5040940;28;20072;-67
2021/01/12 09:15:46;;;;;;;2.80;1.50;;;1.80;69.80;;;;;;5045194;28;20222;-68
2021/01/12 09:18:21;;;;;;;2.63;1.55;;;1.90;70.00;;;;;;5043241;28;20040;-67
2021/01/12 09:21:06;;;;;;;3.45;1.85;;;1.90;69.50;;;;;;5044615;28;20096;-68
2021/01/12 09:23:31;;;;;;;3.08;1.48;;;2.00;69.60;;;;;;5042995;28;20317;-67
2021/01/12 09:26:01;;;;;;;1.80;1.17;;;2.20;69.70;;;;;;5045644;28;20040;-67
2021/01/12 09:28:31;;;;;;;2.55;1.48;;;2.20;68.70;;;;;;5043017;28;20038;-66
2021/01/12 09:31:07;;;;;;;3.03;1.40;;;2.40;69.20;;;;;;5044058;28;20260;-67
2021/01/12 09:33:32;;;;;;;2.67;1.35;;;2.40;69.10;;;;;;5044504;28;20049;-68
2021/01/12 09:36:08;;;;;;;2.28;1.20;;;2.40;69.00;;;;;;5044306;28;20037;-69
2021/01/12 09:38:37;;;;;;;2.38;1.20;;;2.50;68.70;;;;;;5043971;28;20061;-68
2021/01/12 09:41:03;;;;;;;2.38;1.30;;;2.60;68.80;;;;;;5045621;28;20112;-68
2021/01/12 09:43:28;;;;;;;1.88;1.10;;;2.60;68.40;;;;;;5044126;28;20091;-68
2021/01/12 09:45:56;;;;;;;2.10;1.20;;;2.70;68.30;;;;;;5044218;28;20101;-68
2021/01/12 09:48:22;;;;;;;2.00;1.10;;;2.80;67.80;;;;;;5044351;28;20232;-68
2021/01/12 09:50:47;;;;;;;1.60;1.00;;;2.80;67.60;;;;;;5043908;28;20038;-68
2021/01/12 09:53:13;;;;;;;1.63;1.00;;;2.80;67.40;;;;;;5045532;28;20320;-68
2021/01/12 09:55:38;;;;;;;3.38;1.40;;;2.90;68.10;;;;;;5043721;28;20353;-68
2021/01/12 09:58:04;;;;;;;1.60;1.10;;;2.90;67.40;;;;;;5043311;28;20037;-68
2021/01/12 10:00:29;;;;;;;2.25;1.17;;;2.90;67.40;;;;;;5045273;28;20044;-67
2021/01/12 10:02:55;;;;;;;2.03;1.20;;;2.90;67.80;;;;;;5043471;28;20040;-68
2021/01/12 10:05:20;;;;;;;2.22;1.08;;;3.10;67.50;;;;;;5045237;28;20060;-68
2021/01/12 10:07:46;;;;;;;2.72;1.40;;;3.10;67.10;;;;;;5043885;28;20347;-69
2021/01/12 10:10:12;;;;;;;5.22;1.45;;;3.10;66.70;;;;;;5043630;28;20042;-68
2021/01/12 10:12:37;;;;;;;2.33;1.17;;;3.20;67.00;;;;;;5045022;28;20095;-68
2021/01/12 10:15:04;;;;;;;1.40;1.00;;;3.20;67.90;;;;;;5043101;28;20354;-68
2021/01/12 10:17:29;;;;;;;2.00;1.20;;;3.20;68.50;;;;;;5057668;28;20043;-67
2021/01/12 10:19:55;;;;;;;1.98;1.10;;;3.20;68.80;;;;;;5045544;28;20033;-67
2021/01/12 10:22:20;;;;;;;2.03;1.10;;;3.20;69.30;;;;;;5062773;28;20036;-67
2021/01/12 10:24:46;;;;;;;2.25;1.23;;;3.20;70.30;;;;;;5064025;28;20033;-67
2021/01/12 10:27:12;;;;;;;3.15;1.30;;;3.30;69.10;;;;;;5063326;28;20181;-67
2021/01/12 10:29:38;;;;;;;3.03;1.38;;;3.30;68.60;;;;;;5062766;28;20068;-67
2021/01/12 10:32:03;;;;;;;2.22;1.20;;;3.40;69.20;;;;;;5064902;28;20393;-69
2021/01/12 10:34:29;;;;;;;2.20;1.30;;;3.50;69.40;;;;;;5062800;28;20049;-67
2021/01/12 10:36:54;;;;;;;1.95;1.30;;;3.40;68.90;;;;;;5044898;28;20037;-66
2021/01/12 10:39:20;;;;;;;2.55;1.30;;;3.50;69.10;;;;;;5064160;28;20100;-68
2021/01/12 10:41:46;;;;;;;2.17;1.13;;;3.40;71.50;;;;;;5062926;28;20040;-67
2021/01/12 10:44:11;;;;;;;2.63;1.45;;;3.30;77.10;;;;;;5064399;28;20041;-67
2021/01/12 10:46:37;;;;;;;2.03;1.33;;;3.20;79.30;;;;;;5062962;28;20058;-68
2021/01/12 10:49:03;;;;;;;2.08;1.25;;;3.00;80.20;;;;;;5062396;28;20037;-67
2021/01/12 10:51:29;;;;;;;1.80;1.10;;;3.00;80.10;;;;;;5063885;28;20112;-66
2021/01/12 10:53:54;;;;;;;2.33;1.20;;;2.90;80.70;;;;;;5062852;28;20033;-69
2021/01/12 10:56:20;;;;;;;1.73;1.10;;;2.90;82.50;;;;;;5064134;28;20335;-70
2021/01/12 10:58:45;;;;;;;1.83;1.10;;;3.00;83.40;;;;;;5062194;28;20037;-70
2021/01/12 11:01:15;;;;;;;4.60;1.17;;;2.90;83.50;;;;;;5062137;28;20071;-68
2021/01/12 11:03:40;;;;;;;3.28;1.20;;;2.90;84.70;;;;;;5063920;28;20036;-70
2021/01/12 11:06:06;;;;;;;2.45;1.20;;;2.70;83.40;;;;;;5062495;28;20029;-70
2021/01/12 11:08:32;;;;;;;2.30;1.15;;;2.80;84.70;;;;;;5062019;28;20032;-68
2021/01/12 11:10:58;;;;;;;2.95;1.25;;;2.60;84.20;;;;;;5063666;28;20029;-66
2021/01/12 11:13:25;;;;;;;3.30;1.05;;;2.80;84.20;;;;;;5062206;28;20355;-66
2021/01/12 11:15:51;;;;;;;4.07;1.02;;;2.80;83.30;;;;;;5063187;28;20041;-67
2021/01/12 11:18:16;;;;;;;2.78;0.90;;;2.90;83.30;;;;;;5061744;28;20056;-66
2021/01/12 11:20:44;;;;;;;2.95;1.05;;;2.90;82.30;;;;;;5061665;28;20037;-66
2021/01/12 11:23:10;;;;;;;1.50;1.00;;;2.90;81.90;;;;;;5063687;28;20321;-69
2021/01/12 11:25:36;;;;;;;3.08;1.00;;;2.90;82.20;;;;;;5061881;28;20071;-67
2021/01/12 11:28:01;;;;;;;3.03;1.10;;;2.80;82.20;;;;;;5043811;28;20109;-68
2021/01/12 11:30:27;;;;;;;2.20;1.10;;;2.90;82.10;;;;;;5063432;28;20069;-67
2021/01/12 11:32:55;;;;;;;4.30;1.17;;;2.90;82.10;;;;;;5061394;28;20032;-67
2021/01/12 11:35:20;;;;;;;1.73;0.73;;;2.90;81.30;;;;;;5042591;28;20037;-67
2021/01/12 11:37:48;;;;;;;2.50;1.17;;;2.90;81.60;;;;;;5041127;28;20037;-68
2021/01/12 11:40:14;;;;;;;2.47;1.05;;;2.90;81.50;;;;;;5041462;28;20038;-66
2021/01/12 11:42:39;;;;;;;1.52;0.85;;;2.90;81.80;;;;;;5042206;28;20113;-67
2021/01/12 11:45:07;;;;;;;5.90;1.00;;;2.90;82.10;;;;;;5041307;28;20037;-66
2021/01/12 11:47:33;;;;;;;2.33;1.00;;;2.80;82.50;;;;;;5039987;28;20033;-66
2021/01/12 11:49:58;;;;;;;1.52;1.02;;;2.80;82.70;;;;;;5042021;28;20091;-68
2021/01/12 11:52:24;;;;;;;6.43;1.00;;;2.80;82.80;;;;;;5040564;28;20041;-66
2021/01/12 11:54:49;;;;;;;2.92;0.95;;;2.80;82.30;;;;;;5043377;28;20037;-69
2021/01/12 11:57:15;;;;;;;2.33;1.00;;;2.90;82.20;;;;;;5041727;28;20260;-67
2021/01/12 11:59:40;;;;;;;3.08;1.08;;;2.80;81.80;;;;;;5041161;28;20297;-66
2021/01/12 12:02:06;;;;;;;1.98;1.10;;;2.90;82.10;;;;;;5043170;28;20121;-66
2021/01/12 12:04:32;;;;;;;2.22;0.80;;;2.80;82.00;;;;;;5041484;28;20206;-64
2021/01/12 12:07:02;;;;;;;2.42;1.00;;;2.80;81.80;;;;;;5041287;28;20041;-63
2021/01/12 12:09:29;;;;;;;1.67;0.80;;;2.80;81.80;;;;;;5042495;28;20044;-65
2021/01/12 12:11:55;;;;;;;2.17;0.82;;;2.80;82.10;;;;;;5041378;28;20043;-65
2021/01/12 12:14:21;;;;;;;3.67;1.00;;;2.90;81.90;;;;;;5042873;28;20076;-66
2021/01/12 12:16:47;;;;;;;1.75;0.90;;;2.90;81.20;;;;;;5043444;28;20095;-65
2021/01/12 12:19:17;;;;;;;4.25;1.00;;;2.90;81.50;;;;;;5043171;28;20277;-65